Time;durP1;ratioP1;P1;durP2;ratioP2;P2;SDS_P1;SDS_P2;PMS_P1;PMS_P2;Temp;Humidity;BMP_temperature;BMP_pressure;BME280_temperature;BME280_humidity;BME280_pressure;Samples;Min_cycle;Max_cycle;Signal;HPM_P1;HPM_P2
2023/09/20 00:02:08;;;;;;;3.42;1.75;;;14.30;74.80;;;;;;5015111;28;20060;-63
2023/09/20 00:04:35;;;;;;;3.72;1.70;;;14.30;74.80;;;;;;5015075;28;20053;-63
2023/09/20 00:07:02;;;;;;;5.90;1.92;;;14.30;74.40;;;;;;5013457;28;20465;-64
2023/09/20 00:09:30;;;;;;;5.72;1.80;;;14.30;74.80;;;;;;5013150;28;20695;-63
2023/09/20 00:11:56;;;;;;;5.03;1.60;;;14.30;74.60;;;;;;5015041;28;20025;-64
2023/09/20 00:14:21;;;;;;;10.05;2.85;;;14.20;74.60;;;;;;5010714;28;20348;-63
2023/09/20 00:16:47;;;;;;;4.88;1.92;;;14.20;75.60;;;;;;5015086;28;20072;-64
2023/09/20 00:19:12;;;;;;;7.47;2.33;;;14.20;75.40;;;;;;5014155;28;20112;-63
2023/09/20 00:21:38;;;;;;;3.95;1.95;;;14.20;75.10;;;;;;5011672;28;20033;-62
2023/09/20 00:24:07;;;;;;;3.35;1.83;;;14.20;74.70;;;;;;5016385;28;20033;-64
2023/09/20 00:26:33;;;;;;;2.60;1.75;;;14.20;74.80;;;;;;5019892;28;20496;-63
2023/09/20 00:29:04;;;;;;;3.38;1.77;;;14.20;75.30;;;;;;5014457;28;20040;-63
2023/09/20 00:31:30;;;;;;;5.35;1.70;;;14.10;75.10;;;;;;5015143;28;20592;-62
2023/09/20 00:33:56;;;;;;;3.17;1.60;;;14.10;75.40;;;;;;5017633;28;20033;-64
2023/09/20 00:36:23;;;;;;;4.28;1.40;;;14.10;75.60;;;;;;5021006;28;20032;-64
2023/09/20 00:38:48;;;;;;;4.00;1.90;;;14.10;75.40;;;;;;5011654;28;20018;-64
2023/09/20 00:41:15;;;;;;;2.65;1.30;;;14.10;75.50;;;;;;5018292;28;20033;-63
2023/09/20 00:43:41;;;;;;;2.60;1.73;;;14.00;75.80;;;;;;5016705;28;20033;-65
2023/09/20 00:46:07;;;;;;;5.63;2.10;;;14.00;75.60;;;;;;5014834;28;20026;-62
2023/09/20 00:48:33;;;;;;;5.07;1.95;;;14.00;75.90;;;;;;5017558;28;20393;-64
2023/09/20 00:50:59;;;;;;;4.95;1.88;;;14.00;76.10;;;;;;5015169;28;20410;-63
2023/09/20 00:53:26;;;;;;;5.05;1.80;;;14.00;76.40;;;;;;5008001;28;20022;-63
2023/09/20 00:55:51;;;;;;;4.30;1.92;;;14.00;76.40;;;;;;5014961;28;20029;-63
2023/09/20 00:58:19;;;;;;;5.13;1.73;;;14.00;76.20;;;;;;5019761;28;20032;-63
2023/09/20 01:00:45;;;;;;;3.30;1.67;;;14.00;76.90;;;;;;5012103;28;20025;-64
2023/09/20 01:03:17;;;;;;;1.98;1.55;;;14.00;76.60;;;;;;5017758;28;20524;-62
2023/09/20 01:05:43;;;;;;;4.45;1.83;;;13.90;77.30;;;;;;5013689;28;20501;-63
2023/09/20 01:08:08;;;;;;;3.53;1.63;;;14.00;77.80;;;;;;5017766;28;20060;-63
2023/09/20 01:10:37;;;;;;;4.15;1.70;;;13.90;76.80;;;;;;5013735;28;20394;-63
2023/09/20 01:13:05;;;;;;;3.70;1.90;;;14.00;77.40;;;;;;5020595;28;20082;-63
2023/09/20 01:15:32;;;;;;;4.40;1.88;;;14.00;77.20;;;;;;5009866;28;20025;-63
2023/09/20 01:17:59;;;;;;;3.05;1.77;;;13.90;77.50;;;;;;5012887;28;20029;-63
2023/09/20 01:20:25;;;;;;;5.38;1.83;;;13.90;77.00;;;;;;5014015;28;20029;-63
2023/09/20 01:22:53;;;;;;;5.53;1.55;;;14.00;77.80;;;;;;5015708;28;20025;-63
2023/09/20 01:25:24;;;;;;;3.50;1.35;;;14.00;77.50;;;;;;5011626;28;20029;-63
2023/09/20 01:28:01;;;;;;;6.60;1.88;;;14.00;77.40;;;;;;5015454;28;20029;-63
2023/09/20 01:30:31;;;;;;;2.70;1.60;;;13.90;77.40;;;;;;5014606;28;20026;-62
2023/09/20 01:33:03;;;;;;;5.18;1.67;;;13.90;77.60;;;;;;5016849;28;20375;-64
2023/09/20 01:35:30;;;;;;;4.68;1.55;;;13.90;79.30;;;;;;5013735;28;20022;-63
2023/09/20 01:37:56;;;;;;;6.75;2.10;;;13.90;78.60;;;;;;5016962;28;20045;-62
2023/09/20 01:40:26;;;;;;;4.75;1.83;;;13.90;78.50;;;;;;5011497;28;20394;-64
2023/09/20 01:42:52;;;;;;;4.35;1.40;;;13.90;78.50;;;;;;5019645;28;20021;-63
2023/09/20 01:45:19;;;;;;;3.67;1.52;;;13.80;78.70;;;;;;5014247;28;20659;-63
2023/09/20 01:47:47;;;;;;;2.28;1.30;;;13.80;78.60;;;;;;5013127;28;20037;-63
2023/09/20 01:50:20;;;;;;;3.17;1.73;;;13.80;79.00;;;;;;5018383;28;20036;-63
2023/09/20 01:52:49;;;;;;;3.63;1.50;;;13.80;78.50;;;;;;5017130;28;20029;-63
2023/09/20 01:55:17;;;;;;;3.65;1.63;;;13.80;79.60;;;;;;5021961;28;20041;-64
2023/09/20 01:57:45;;;;;;;2.50;1.50;;;13.80;79.60;;;;;;5018257;28;20505;-62
2023/09/20 02:00:16;;;;;;;4.70;1.90;;;13.80;81.10;;;;;;5022803;28;20047;-62
2023/09/20 02:02:44;;;;;;;3.13;1.55;;;13.70;80.40;;;;;;5021617;28;20026;-63
2023/09/20 02:05:10;;;;;;;6.18;2.20;;;13.70;80.80;;;;;;5018204;28;20506;-62
2023/09/20 02:07:37;;;;;;;5.07;1.52;;;13.70;81.40;;;;;;5025204;28;20086;-63
2023/09/20 02:10:06;;;;;;;4.80;2.10;;;13.70;80.90;;;;;;5026333;28;20485;-63
2023/09/20 02:12:31;;;;;;;3.63;1.58;;;13.70;82.30;;;;;;5023377;28;20489;-63
2023/09/20 02:14:57;;;;;;;4.32;1.77;;;13.80;82.40;;;;;;5014677;28;20100;-63
2023/09/20 02:17:22;;;;;;;3.13;1.60;;;13.80;83.50;;;;;;5020224;28;20099;-63
2023/09/20 02:19:48;;;;;;;2.85;1.45;;;13.80;82.50;;;;;;5024477;28;20021;-63
2023/09/20 02:22:13;;;;;;;2.83;1.38;;;13.80;82.50;;;;;;5017372;28;20036;-63
2023/09/20 02:24:38;;;;;;;3.53;1.73;;;13.80;82.90;;;;;;5022007;28;20052;-63
2023/09/20 02:27:08;;;;;;;6.22;1.60;;;13.80;82.20;;;;;;5020768;28;20041;-63
2023/09/20 02:29:34;;;;;;;2.70;1.38;;;13.80;83.20;;;;;;5021600;28;20025;-63
2023/09/20 02:32:00;;;;;;;3.97;1.45;;;13.80;83.00;;;;;;5016947;28;20505;-63
2023/09/20 02:34:26;;;;;;;3.05;1.60;;;13.80;82.90;;;;;;5020339;28;20022;-63
2023/09/20 02:36:51;;;;;;;2.38;1.20;;;13.80;83.30;;;;;;5020106;28;20563;-63
2023/09/20 02:39:18;;;;;;;6.20;1.60;;;13.80;83.80;;;;;;5017398;28;20045;-63
2023/09/20 02:41:44;;;;;;;3.75;1.75;;;13.90;83.30;;;;;;5022819;28;20757;-63
2023/09/20 02:44:09;;;;;;;4.50;1.75;;;13.90;84.10;;;;;;5021698;28;20120;-63
2023/09/20 02:46:35;;;;;;;2.88;1.75;;;13.90;84.50;;;;;;5019684;28;20041;-63
2023/09/20 02:49:00;;;;;;;2.53;1.30;;;14.00;84.40;;;;;;5020087;28;20026;-63
2023/09/20 02:51:26;;;;;;;2.92;1.90;;;14.00;84.70;;;;;;5019646;28;20029;-63
2023/09/20 02:53:51;;;;;;;3.63;1.65;;;14.00;84.30;;;;;;5016863;28;20062;-63
2023/09/20 02:56:17;;;;;;;5.13;1.77;;;14.00;84.30;;;;;;5022059;28;20447;-63
2023/09/20 02:58:48;;;;;;;2.38;1.42;;;14.00;84.20;;;;;;5015084;28;20029;-62
2023/09/20 03:01:16;;;;;;;5.70;1.70;;;14.10;84.50;;;;;;5011509;28;20022;-63
2023/09/20 03:03:41;;;;;;;2.53;1.40;;;14.20;84.40;;;;;;5016328;28;20030;-63
2023/09/20 03:06:09;;;;;;;3.00;1.70;;;14.20;84.60;;;;;;5011564;28;20029;-63
2023/09/20 03:08:35;;;;;;;5.22;1.80;;;14.30;84.20;;;;;;5012671;28;20026;-63
2023/09/20 03:11:00;;;;;;;3.50;1.60;;;14.30;84.20;;;;;;5014809;28;20021;-63
2023/09/20 03:13:27;;;;;;;3.55;1.42;;;14.40;83.60;;;;;;5006214;28;20164;-63
2023/09/20 03:15:54;;;;;;;3.53;1.33;;;14.40;83.60;;;;;;5014013;28;20433;-63
2023/09/20 03:18:22;;;;;;;4.28;1.90;;;14.50;82.90;;;;;;5013834;28;20097;-63
2023/09/20 03:20:49;;;;;;;3.63;1.55;;;14.50;83.00;;;;;;5019371;28;20108;-63
2023/09/20 03:23:14;;;;;;;4.07;1.77;;;14.50;83.10;;;;;;5013447;28;20028;-63
2023/09/20 03:25:40;;;;;;;2.72;1.73;;;14.50;83.20;;;;;;5011552;28;20389;-64
2023/09/20 03:28:10;;;;;;;3.65;1.60;;;14.50;83.50;;;;;;5012939;28;20053;-63
2023/09/20 03:30:39;;;;;;;4.63;1.85;;;14.60;83.00;;;;;;5014663;28;20377;-63
2023/09/20 03:33:06;;;;;;;2.25;1.75;;;14.70;82.80;;;;;;5009013;28;20042;-64
2023/09/20 03:35:33;;;;;;;4.90;1.95;;;14.70;82.80;;;;;;5017428;28;20030;-53
2023/09/20 03:37:59;;;;;;;4.32;1.67;;;14.70;82.40;;;;;;5012992;28;20061;-52
2023/09/20 03:40:28;;;;;;;3.42;1.73;;;14.80;82.70;;;;;;5011355;28;20488;-52
2023/09/20 03:42:54;;;;;;;3.05;1.63;;;14.80;82.70;;;;;;5012737;28;20096;-55
2023/09/20 03:45:20;;;;;;;2.55;1.40;;;14.80;82.50;;;;;;5012004;28;20556;-51
2023/09/20 03:47:53;;;;;;;4.88;1.70;;;14.90;82.40;;;;;;5015193;28;20057;-51
2023/09/20 03:50:19;;;;;;;2.40;1.38;;;14.90;82.20;;;;;;5021414;28;20487;-50
2023/09/20 03:52:48;;;;;;;2.75;1.27;;;14.90;82.30;;;;;;5019352;28;20592;-53
2023/09/20 03:55:13;;;;;;;3.72;1.45;;;14.90;82.30;;;;;;5022336;28;20032;-48
2023/09/20 03:57:39;;;;;;;5.25;1.55;;;15.00;82.60;;;;;;5027894;28;20041;-51
2023/09/20 04:00:11;;;;;;;4.03;1.60;;;15.00;83.20;;;;;;5025149;28;20013;-51
2023/09/20 04:02:40;;;;;;;3.90;1.40;;;15.10;82.10;;;;;;5018845;28;20237;-51
2023/09/20 04:05:10;;;;;;;4.05;1.85;;;15.10;82.20;;;;;;5014939;28;20462;-51
2023/09/20 04:07:36;;;;;;;3.78;1.83;;;15.10;82.10;;;;;;5022794;28;20021;-48
2023/09/20 04:10:02;;;;;;;6.00;1.90;;;15.10;82.10;;;;;;5022912;28;20048;-52
2023/09/20 04:12:28;;;;;;;3.45;1.60;;;15.10;82.00;;;;;;5023509;28;20038;-47
2023/09/20 04:14:54;;;;;;;3.47;1.67;;;15.10;82.20;;;;;;5020806;28;20084;-49
2023/09/20 04:17:21;;;;;;;3.78;1.60;;;15.10;82.20;;;;;;5028543;28;20237;-51
2023/09/20 04:19:46;;;;;;;5.50;1.25;;;15.20;82.40;;;;;;5025182;28;20033;-49
2023/09/20 04:22:14;;;;;;;2.83;1.50;;;15.20;83.10;;;;;;5024532;28;20037;-48
2023/09/20 04:24:40;;;;;;;6.32;2.22;;;15.20;82.50;;;;;;5019942;28;20117;-47
2023/09/20 04:27:05;;;;;;;3.65;1.48;;;15.20;82.60;;;;;;5024395;28;20318;-48
2023/09/20 04:29:31;;;;;;;3.05;1.50;;;15.10;82.40;;;;;;5022551;28;20397;-51
2023/09/20 04:31:57;;;;;;;5.43;1.77;;;15.10;82.70;;;;;;5024307;28;20034;-50
2023/09/20 04:34:23;;;;;;;2.80;1.27;;;15.10;82.60;;;;;;5017081;28;20083;-50
2023/09/20 04:36:50;;;;;;;2.47;1.17;;;15.10;83.20;;;;;;5023159;28;20025;-50
2023/09/20 04:39:16;;;;;;;2.85;1.77;;;15.00;83.20;;;;;;5021843;28;20013;-49
2023/09/20 04:41:42;;;;;;;3.70;1.50;;;15.10;83.40;;;;;;5017196;28;20022;-51
2023/09/20 04:44:08;;;;;;;3.60;1.33;;;15.00;83.70;;;;;;5025522;28;20036;-50
2023/09/20 04:46:36;;;;;;;2.80;1.45;;;15.00;83.40;;;;;;5018807;28;20105;-52
2023/09/20 04:49:05;;;;;;;3.70;1.48;;;15.00;84.10;;;;;;5023018;28;20398;-49
2023/09/20 04:51:32;;;;;;;1.98;1.35;;;15.00;84.30;;;;;;5024020;28;20028;-48
2023/09/20 04:53:58;;;;;;;5.13;1.92;;;15.00;84.70;;;;;;5024464;28;20457;-50
2023/09/20 04:56:25;;;;;;;1.52;1.13;;;15.00;84.50;;;;;;5013675;28;20033;-51
2023/09/20 04:58:50;;;;;;;3.65;1.77;;;14.90;85.20;;;;;;5019705;28;20161;-46
2023/09/20 05:01:17;;;;;;;1.90;1.30;;;14.90;85.30;;;;;;5021616;28;20026;-50
2023/09/20 05:03:43;;;;;;;3.95;1.80;;;14.90;85.90;;;;;;5018648;28;20271;-52
2023/09/20 05:06:09;;;;;;;2.90;1.55;;;14.90;85.60;;;;;;5020718;28;20532;-50
2023/09/20 05:08:36;;;;;;;2.85;1.52;;;14.90;86.10;;;;;;5023617;28;20029;-52
2023/09/20 05:11:03;;;;;;;5.95;1.80;;;14.90;86.40;;;;;;5019798;28;20017;-52
2023/09/20 05:13:28;;;;;;;4.53;1.58;;;14.90;86.50;;;;;;5020035;28;20040;-48
2023/09/20 05:15:54;;;;;;;3.75;1.20;;;14.90;86.70;;;;;;5021107;28;20056;-49
2023/09/20 05:18:20;;;;;;;3.40;1.58;;;14.90;86.60;;;;;;5025464;28;20057;-50
2023/09/20 05:20:45;;;;;;;3.85;1.40;;;14.90;86.90;;;;;;5020853;28;20478;-51
2023/09/20 05:23:11;;;;;;;2.58;1.20;;;15.00;87.30;;;;;;5017742;28;20056;-52
2023/09/20 05:25:37;;;;;;;4.85;1.60;;;15.00;87.10;;;;;;5021168;28;20061;-50
2023/09/20 05:28:04;;;;;;;2.50;1.42;;;15.00;87.40;;;;;;5017274;28;20064;-51
2023/09/20 05:30:30;;;;;;;3.17;1.30;;;15.00;88.60;;;;;;5019249;28;20052;-49
2023/09/20 05:32:56;;;;;;;2.75;1.45;;;15.10;88.00;;;;;;5023575;28;20037;-49
2023/09/20 05:35:22;;;;;;;3.78;1.60;;;15.10;88.20;;;;;;5022752;28;20028;-48
2023/09/20 05:37:48;;;;;;;3.90;1.65;;;15.10;88.20;;;;;;5024201;28;20025;-52
2023/09/20 05:40:17;;;;;;;3.03;1.42;;;15.10;88.30;;;;;;5017594;28;20037;-50
2023/09/20 05:42:46;;;;;;;3.35;1.55;;;15.20;88.20;;;;;;5021497;28;20390;-51
2023/09/20 05:45:12;;;;;;;3.35;1.23;;;15.20;87.80;;;;;;5020706;28;20034;-48
2023/09/20 05:47:42;;;;;;;2.15;1.40;;;15.30;88.10;;;;;;5020577;28;20037;-51
2023/09/20 05:50:13;;;;;;;2.45;1.40;;;15.30;87.80;;;;;;5016901;28;20029;-48
2023/09/20 05:52:43;;;;;;;1.55;1.20;;;15.40;87.90;;;;;;5018820;28;20394;-52
2023/09/20 05:55:13;;;;;;;4.15;1.58;;;15.40;87.80;;;;;;5018921;28;20026;-49
2023/09/20 05:57:43;;;;;;;5.57;1.50;;;15.60;87.90;;;;;;5022874;28;20033;-51
2023/09/20 06:00:16;;;;;;;6.25;1.40;;;15.60;88.10;;;;;;5018376;28;20040;-47
2023/09/20 06:02:42;;;;;;;1.95;1.27;;;15.70;87.30;;;;;;5018953;28;20053;-53
2023/09/20 06:05:12;;;;;;;6.35;1.70;;;15.80;87.10;;;;;;5018096;28;20028;-50
2023/09/20 06:07:38;;;;;;;5.43;1.70;;;16.00;86.90;;;;;;5016839;28;20083;-50
2023/09/20 06:10:04;;;;;;;4.30;1.95;;;16.10;86.30;;;;;;5012756;28;20057;-50
2023/09/20 06:12:30;;;;;;;4.78;1.42;;;16.30;86.00;;;;;;5010651;28;20136;-51
2023/09/20 06:14:55;;;;;;;5.63;1.63;;;16.50;84.60;;;;;;5012761;28;20533;-52
2023/09/20 06:17:22;;;;;;;3.33;1.17;;;16.70;83.70;;;;;;5014201;28;20033;-51
2023/09/20 06:19:48;;;;;;;2.60;1.27;;;16.90;83.40;;;;;;5018225;28;20029;-52
2023/09/20 06:22:15;;;;;;;2.63;1.20;;;17.00;83.00;;;;;;5011792;28;20030;-51
2023/09/20 06:24:44;;;;;;;2.03;1.23;;;17.20;81.60;;;;;;5015425;28;20017;-51
2023/09/20 06:27:09;;;;;;;1.83;1.42;;;17.60;81.10;;;;;;5011086;28;20030;-48
2023/09/20 06:29:35;;;;;;;3.78;1.17;;;17.80;80.10;;;;;;5017717;28;20109;-49
2023/09/20 06:32:04;;;;;;;2.63;1.50;;;18.00;79.60;;;;;;5011871;28;20103;-52
2023/09/20 06:34:30;;;;;;;1.75;1.10;;;18.20;77.70;;;;;;5008750;28;20022;-52
2023/09/20 06:36:55;;;;;;;4.50;1.65;;;18.50;77.50;;;;;;5014546;28;20029;-53
2023/09/20 06:39:21;;;;;;;3.40;1.67;;;18.90;74.50;;;;;;5011694;28;20085;-51
2023/09/20 06:41:49;;;;;;;3.72;1.60;;;19.50;73.20;;;;;;5014596;28;20076;-47
2023/09/20 06:44:14;;;;;;;4.45;1.20;;;20.20;72.40;;;;;;5013170;28;20052;-52
2023/09/20 06:46:42;;;;;;;3.13;1.38;;;20.40;70.90;;;;;;5012609;28;20485;-49
2023/09/20 06:49:08;;;;;;;2.63;1.55;;;20.50;70.60;;;;;;5015547;28;20504;-47
2023/09/20 06:51:34;;;;;;;3.47;1.40;;;20.90;68.60;;;;;;5015604;28;20026;-47
2023/09/20 06:54:00;;;;;;;1.63;1.33;;;21.80;66.00;;;;;;5016011;28;20161;-47
2023/09/20 06:56:26;;;;;;;2.80;1.10;;;22.50;64.80;;;;;;5015554;28;20040;-48
2023/09/20 06:58:55;;;;;;;2.05;1.20;;;23.10;58.50;;;;;;5011694;28;20022;-47
2023/09/20 07:01:21;;;;;;;3.35;1.15;;;23.20;59.50;;;;;;5014647;28;20029;-47
2023/09/20 07:03:46;;;;;;;3.92;1.17;;;23.40;59.00;;;;;;5008309;28;20022;-46
2023/09/20 07:06:12;;;;;;;2.83;1.25;;;23.60;60.20;;;;;;5017401;28;20060;-50
2023/09/20 07:08:37;;;;;;;1.58;1.02;;;23.70;59.90;;;;;;5011097;28;20052;-49
2023/09/20 07:11:04;;;;;;;1.67;1.25;;;23.80;56.90;;;;;;5012956;28;20515;-50
2023/09/20 07:13:32;;;;;;;2.20;1.35;;;23.80;58.70;;;;;;5014295;28;20117;-49
2023/09/20 07:16:04;;;;;;;3.17;1.55;;;24.20;55.70;;;;;;5016272;28;20516;-48
2023/09/20 07:18:30;;;;;;;1.25;1.15;;;24.30;57.20;;;;;;5015266;28;20040;-47
2023/09/20 07:20:55;;;;;;;2.47;1.45;;;24.60;56.00;;;;;;5011025;28;20101;-50
2023/09/20 07:23:21;;;;;;;2.92;1.10;;;24.90;55.90;;;;;;5015195;28;20034;-49
2023/09/20 07:25:49;;;;;;;6.53;1.20;;;25.20;55.30;;;;;;5017311;28;20489;-48
2023/09/20 07:28:16;;;;;;;2.28;1.20;;;25.50;54.30;;;;;;5006644;28;20037;-48
2023/09/20 07:30:44;;;;;;;1.70;1.20;;;25.40;51.20;;;;;;5012224;28;20014;-51
2023/09/20 07:33:23;;;;;;;3.70;1.52;;;25.40;52.40;;;;;;5017893;28;20050;-51
2023/09/20 07:35:58;;;;;;;1.20;1.10;;;25.30;49.50;;;;;;5020059;28;20112;-49
2023/09/20 07:40:50;;;;;;;4.75;1.52;;;25.30;50.90;;;;;;5016183;28;20113;-48
2023/09/20 07:43:18;;;;;;;2.47;1.10;;;25.40;49.50;;;;;;5014787;28;20096;-50
2023/09/20 07:45:44;;;;;;;2.90;1.10;;;25.40;49.80;;;;;;5019273;28;20025;-48
2023/09/20 07:48:12;;;;;;;3.33;1.27;;;25.60;49.40;;;;;;5019020;28;20104;-49
2023/09/20 07:50:49;;;;;;;3.80;1.38;;;25.80;48.80;;;;;;5017068;28;20022;-50
2023/09/20 07:53:19;;;;;;;1.38;1.00;;;25.90;45.10;;;;;;5018230;28;20033;-49
2023/09/20 07:55:56;;;;;;;2.03;1.40;;;26.20;45.90;;;;;;5019012;28;20017;-46
2023/09/20 07:58:21;;;;;;;2.08;1.33;;;26.20;47.10;;;;;;5013275;28;20022;-51
2023/09/20 08:00:51;;;;;;;1.58;1.00;;;26.50;47.60;;;;;;5015437;28;20022;-49
2023/09/20 08:03:18;;;;;;;3.15;1.17;;;26.80;47.00;;;;;;5017485;28;20347;-48
2023/09/20 08:05:44;;;;;;;2.05;1.13;;;27.10;43.10;;;;;;5017605;28;20112;-48
2023/09/20 08:08:10;;;;;;;2.17;1.25;;;27.10;45.10;;;;;;5016508;28;20427;-50
2023/09/20 08:10:36;;;;;;;1.70;1.17;;;27.00;44.70;;;;;;5014318;28;20033;-48
2023/09/20 08:13:04;;;;;;;2.97;1.60;;;27.00;44.40;;;;;;5018147;28;20800;-50
2023/09/20 08:15:38;;;;;;;5.22;1.70;;;26.80;44.50;;;;;;5024415;28;20458;-49
2023/09/20 08:20:47;;;;;;;4.72;1.10;;;26.60;42.70;;;;;;5017271;28;20040;-50
2023/09/20 09:01:44;;;;;;;2.08;1.02;;;26.20;41.00;;;;;;5012050;28;20430;-48
2023/09/20 09:04:12;;;;;;;5.40;1.30;;;26.00;40.90;;;;;;5015629;28;20029;-49
2023/09/20 09:06:38;;;;;;;4.05;1.80;;;25.80;40.80;;;;;;5013235;28;20104;-49
2023/09/20 09:09:03;;;;;;;7.13;1.60;;;25.40;40.30;;;;;;5014821;28;20141;-51
2023/09/20 09:11:29;;;;;;;2.80;1.30;;;25.10;41.10;;;;;;5016318;28;20033;-49
2023/09/20 09:13:58;;;;;;;2.47;1.38;;;25.00;41.60;;;;;;5012324;28;20033;-48
2023/09/20 09:16:24;;;;;;;3.90;1.50;;;25.10;42.30;;;;;;5013317;28;20122;-49
2023/09/20 09:18:50;;;;;;;4.28;1.60;;;25.40;42.40;;;;;;5021227;28;20020;-46
2023/09/20 09:21:18;;;;;;;3.92;1.40;;;25.70;42.40;;;;;;5014974;28;20025;-51
2023/09/20 09:23:46;;;;;;;3.30;1.70;;;25.80;41.70;;;;;;5013872;28;20050;-50
2023/09/20 09:26:13;;;;;;;3.15;1.50;;;25.80;41.40;;;;;;5017008;28;20037;-51
2023/09/20 09:28:41;;;;;;;4.53;1.23;;;26.00;41.60;;;;;;5011371;28;21348;-50
2023/09/20 09:31:08;;;;;;;2.33;1.17;;;26.20;40.50;;;;;;5020247;28;20449;-52
2023/09/20 09:33:35;;;;;;;3.17;1.52;;;26.30;41.10;;;;;;5015629;28;20068;-50
2023/09/20 09:36:02;;;;;;;1.67;1.17;;;26.70;41.00;;;;;;5014886;28;20036;-50
2023/09/20 09:38:32;;;;;;;1.50;1.17;;;26.90;40.50;;;;;;5016823;28;20109;-48
2023/09/20 09:40:58;;;;;;;5.78;1.30;;;27.10;40.20;;;;;;5016852;28;20030;-49
2023/09/20 09:43:29;;;;;;;5.75;1.35;;;27.20;37.70;;;;;;5012837;28;20028;-50
2023/09/20 09:46:00;;;;;;;2.38;1.20;;;27.10;38.60;;;;;;5016687;28;20025;-50
2023/09/20 09:48:29;;;;;;;2.45;1.27;;;26.80;38.30;;;;;;5016820;28;20091;-62
2023/09/20 09:51:04;;;;;;;4.22;1.55;;;26.50;38.60;;;;;;5019416;28;20666;-45
2023/09/20 09:53:30;;;;;;;3.70;1.20;;;26.30;38.70;;;;;;5017463;28;20048;-42
2023/09/20 09:56:02;;;;;;;5.25;1.40;;;26.20;38.60;;;;;;5013547;28;20033;-43
2023/09/20 09:58:28;;;;;;;1.10;1.00;;;25.80;39.10;;;;;;5011058;28;20034;-43
2023/09/20 10:00:55;;;;;;;3.25;1.17;;;25.60;39.60;;;;;;5017882;28;20029;-42
2023/09/20 10:03:29;;;;;;;2.20;1.10;;;25.30;40.10;;;;;;5012438;28;20069;-44
2023/09/20 10:06:08;;;;;;;2.83;1.42;;;25.10;40.20;;;;;;5006651;28;20064;-42
2023/09/20 10:08:38;;;;;;;3.40;0.98;;;24.90;41.20;;;;;;5010645;28;20041;-41
2023/09/20 10:11:05;;;;;;;3.08;1.70;;;24.80;41.50;;;;;;5022352;28;20022;-42
2023/09/20 10:13:32;;;;;;;4.50;1.10;;;24.60;42.00;;;;;;5014837;28;20030;-42
2023/09/20 10:16:00;;;;;;;3.85;1.20;;;24.50;42.20;;;;;;5015921;28;20049;-42
2023/09/20 10:18:33;;;;;;;2.95;1.27;;;24.40;42.20;;;;;;5012132;28;20104;-42
2023/09/20 10:21:14;;;;;;;3.47;1.48;;;24.30;43.40;;;;;;5012954;28;20095;-43
2023/09/20 10:23:42;;;;;;;4.38;1.55;;;24.10;44.10;;;;;;5013015;28;20022;-42
2023/09/20 10:26:14;;;;;;;4.22;1.70;;;23.90;44.10;;;;;;5019128;28;20107;-43
2023/09/20 10:28:42;;;;;;;2.45;1.38;;;23.80;44.20;;;;;;5010727;28;20026;-42
2023/09/20 10:31:13;;;;;;;4.72;1.50;;;23.80;43.90;;;;;;5012978;28;20397;-42
2023/09/20 10:33:41;;;;;;;4.65;1.58;;;23.80;44.70;;;;;;5010065;28;20056;-41
2023/09/20 10:36:06;;;;;;;4.38;1.55;;;23.80;44.60;;;;;;5018274;28;20028;-41
2023/09/20 10:38:32;;;;;;;4.82;1.63;;;23.80;45.50;;;;;;5011735;28;20017;-42
2023/09/20 10:41:03;;;;;;;5.35;1.70;;;23.80;44.70;;;;;;5013411;28;20934;-42
2023/09/20 10:43:34;;;;;;;3.20;1.27;;;23.60;44.80;;;;;;5015483;28;20060;-47
2023/09/20 10:46:09;;;;;;;3.25;1.80;;;23.60;46.20;;;;;;5011016;28;20494;-41
2023/09/20 10:48:40;;;;;;;4.80;1.60;;;23.50;46.00;;;;;;5011043;28;20041;-42
2023/09/20 10:51:07;;;;;;;2.95;1.83;;;23.40;46.00;;;;;;5016604;28;20030;-42
2023/09/20 10:53:44;;;;;;;4.28;1.60;;;23.50;45.60;;;;;;5015191;28;20087;-42
2023/09/20 10:56:10;;;;;;;3.67;1.95;;;23.50;46.70;;;;;;5013750;28;20029;-42
2023/09/20 10:58:38;;;;;;;6.45;1.75;;;23.50;46.00;;;;;;5012541;28;20046;-43
2023/09/20 11:01:06;;;;;;;3.88;1.70;;;23.50;47.00;;;;;;5015351;28;20108;-43
2023/09/20 11:03:32;;;;;;;3.20;1.50;;;23.50;46.60;;;;;;5011910;28;20561;-41
2023/09/20 11:05:58;;;;;;;5.75;1.70;;;23.40;46.60;;;;;;5011218;28;20033;-44
2023/09/20 11:08:24;;;;;;;7.35;2.10;;;23.40;46.90;;;;;;5014715;28;20040;-42
2023/09/20 11:10:50;;;;;;;4.43;1.75;;;23.50;47.00;;;;;;5012369;28;20036;-42
2023/09/20 11:13:19;;;;;;;4.95;1.70;;;23.50;47.60;;;;;;5013244;28;20026;-42
2023/09/20 11:15:46;;;;;;;10.63;2.75;;;23.60;47.30;;;;;;5013417;28;20021;-42
2023/09/20 11:18:16;;;;;;;7.75;2.10;;;23.70;46.80;;;;;;5011126;28;20076;-41
2023/09/20 11:20:43;;;;;;;5.07;1.40;;;23.80;47.00;;;;;;5016343;28;20080;-42
2023/09/20 11:23:09;;;;;;;2.05;1.30;;;24.00;47.20;;;;;;5020181;28;20018;-44
2023/09/20 11:25:35;;;;;;;10.25;1.80;;;24.00;46.60;;;;;;5013274;28;20100;-43
2023/09/20 11:28:00;;;;;;;3.42;1.70;;;24.00;45.90;;;;;;5015349;28;20037;-44
2023/09/20 11:30:27;;;;;;;5.57;2.03;;;24.10;45.90;;;;;;5014996;28;20030;-42
2023/09/20 11:32:54;;;;;;;3.70;1.45;;;24.20;46.10;;;;;;5013560;28;20038;-44
2023/09/20 11:35:38;;;;;;;3.88;1.80;;;24.40;46.10;;;;;;5009555;28;20034;-42
2023/09/20 11:38:06;;;;;;;3.58;1.90;;;24.50;45.80;;;;;;5011830;28;20037;-42
2023/09/20 11:40:34;;;;;;;2.47;1.50;;;24.50;45.50;;;;;;5012817;28;20018;-41
2023/09/20 11:43:02;;;;;;;2.83;1.40;;;24.50;45.20;;;;;;5015359;28;20021;-42
2023/09/20 11:45:28;;;;;;;4.10;1.60;;;24.50;44.80;;;;;;5009498;28;20109;-42
2023/09/20 11:47:54;;;;;;;9.00;1.98;;;24.30;44.50;;;;;;5013377;28;20116;-41
2023/09/20 11:50:24;;;;;;;4.28;1.95;;;24.30;44.90;;;;;;5012454;28;20030;-44
2023/09/20 11:52:50;;;;;;;4.38;1.77;;;24.20;45.30;;;;;;5014773;28;20030;-41
2023/09/20 11:55:16;;;;;;;5.35;1.70;;;24.20;45.30;;;;;;5014701;28;20045;-41
2023/09/20 11:57:42;;;;;;;4.53;2.05;;;24.30;45.90;;;;;;5010317;28;20108;-41
2023/09/20 12:00:12;;;;;;;4.85;1.50;;;24.30;45.70;;;;;;5011158;28;20038;-42
2023/09/20 12:02:38;;;;;;;1.98;1.27;;;24.30;45.30;;;;;;5014365;28;20043;-41
2023/09/20 12:05:04;;;;;;;3.13;1.40;;;24.30;45.40;;;;;;5016083;28;20041;-42
2023/09/20 12:07:30;;;;;;;3.15;1.60;;;24.20;45.80;;;;;;5013345;28;20022;-42
2023/09/20 12:09:55;;;;;;;4.78;1.70;;;24.10;45.70;;;;;;5010429;28;20033;-44
2023/09/20 12:12:21;;;;;;;3.05;1.40;;;24.00;45.90;;;;;;5013050;28;20022;-42
2023/09/20 12:14:46;;;;;;;9.35;1.77;;;23.90;46.20;;;;;;5013403;28;20064;-41
2023/09/20 12:17:12;;;;;;;4.47;1.48;;;23.90;46.30;;;;;;5018568;28;20040;-42
2023/09/20 12:19:37;;;;;;;3.92;1.30;;;24.00;46.60;;;;;;5015535;28;20068;-44
2023/09/20 12:22:03;;;;;;;3.78;1.58;;;24.10;46.90;;;;;;5015525;28;20417;-41
2023/09/20 12:24:28;;;;;;;4.05;1.20;;;24.20;47.00;;;;;;5013879;28;20045;-42
2023/09/20 12:26:56;;;;;;;3.20;1.90;;;24.20;46.80;;;;;;5016800;28;20160;-42
2023/09/20 12:29:21;;;;;;;1.90;1.10;;;24.20;46.30;;;;;;5018384;28;20029;-42
2023/09/20 12:31:49;;;;;;;2.92;1.58;;;24.20;46.30;;;;;;5022286;28;20512;-42
2023/09/20 12:34:16;;;;;;;4.00;1.50;;;24.30;46.00;;;;;;5022225;28;20029;-41
2023/09/20 12:36:41;;;;;;;4.38;1.25;;;24.30;45.80;;;;;;5024570;28;20022;-42
2023/09/20 12:39:10;;;;;;;2.88;1.75;;;24.30;45.60;;;;;;5018071;28;20093;-42
2023/09/20 12:41:37;;;;;;;4.40;1.55;;;24.40;45.10;;;;;;5015555;28;20014;-42
2023/09/20 12:44:03;;;;;;;2.45;1.30;;;24.30;44.90;;;;;;5015008;28;20017;-42
2023/09/20 12:46:31;;;;;;;3.70;1.40;;;24.40;45.20;;;;;;5016566;28;20034;-41
2023/09/20 12:48:57;;;;;;;2.15;1.40;;;24.30;45.40;;;;;;5013237;28;20025;-42
2023/09/20 12:51:24;;;;;;;4.70;1.55;;;24.20;44.50;;;;;;5015909;28;20029;-42
2023/09/20 12:53:50;;;;;;;2.17;1.38;;;24.10;44.70;;;;;;5023906;28;20417;-42
2023/09/20 12:56:16;;;;;;;4.10;1.83;;;24.00;44.90;;;;;;5013838;28;20029;-42
2023/09/20 12:58:41;;;;;;;3.75;1.60;;;24.00;45.20;;;;;;5015778;28;20021;-41
2023/09/20 13:01:11;;;;;;;3.08;1.85;;;24.00;44.80;;;;;;5016291;28;20406;-41
2023/09/20 13:03:40;;;;;;;2.97;1.42;;;24.00;45.20;;;;;;5015197;28;20092;-45
2023/09/20 13:06:07;;;;;;;2.75;1.38;;;24.00;44.70;;;;;;5018192;28;20029;-42
2023/09/20 13:08:32;;;;;;;2.08;1.40;;;24.00;45.10;;;;;;5023020;28;20032;-42
2023/09/20 13:10:58;;;;;;;3.15;1.35;;;24.00;44.90;;;;;;5023349;28;20382;-41
2023/09/20 13:13:23;;;;;;;4.57;1.65;;;24.00;45.10;;;;;;5018029;28;20108;-42
2023/09/20 13:15:49;;;;;;;4.25;1.50;;;24.00;45.10;;;;;;5014888;28;20063;-41
2023/09/20 13:18:16;;;;;;;2.35;1.27;;;24.10;45.20;;;;;;5015703;28;20022;-43
2023/09/20 13:20:42;;;;;;;2.63;1.25;;;24.10;45.40;;;;;;5016847;28;20448;-42
2023/09/20 13:23:08;;;;;;;3.72;1.60;;;24.20;45.30;;;;;;5013986;28;20055;-44
2023/09/20 13:25:34;;;;;;;2.47;1.30;;;24.20;45.50;;;;;;5014487;28;20022;-45
2023/09/20 13:28:00;;;;;;;2.63;1.40;;;24.30;45.50;;;;;;5017243;28;20095;-42
2023/09/20 13:30:26;;;;;;;3.75;1.45;;;24.40;45.50;;;;;;5010400;28;20121;-42